Preview of NWS' New Version of Forecast
This preview is not operational and should not be used for support decisions.

Terminal Aerodrome Forecast (TAF)

Issued by National Weather Service (NWS)

                            
000
FTUS46 KMTR 190520
TAFSTS
TAF
KSTS 190520Z 1906/2006 16005KT P6SM OVC007
      TEMPO 1912/1915 3SM BR
     FM191800 VRB03KT P6SM SCT012
     FM192000 19010KT P6SM SKC
     FM200400 14005KT P6SM SCT010=